Time;durP1;ratioP1;P1;durP2;ratioP2;P2;SDS_P1;SDS_P2;PMS_P1;PMS_P2;Temp;Humidity;BMP_temperature;BMP_pressure;BME280_temperature;BME280_humidity;BME280_pressure;Samples;Min_cycle;Max_cycle;Signal;HPM_P1;HPM_P2
2022/03/01 00:02:18;;;;;;;20.27;13.73;;;8.30;1.00;;;;;;5079978;28;20279;-74
2022/03/01 00:04:45;;;;;;;20.83;14.70;;;8.20;1.00;;;;;;5077258;28;20852;-73
2022/03/01 00:07:12;;;;;;;18.07;13.73;;;8.20;1.00;;;;;;5077710;28;20209;-75
2022/03/01 00:09:39;;;;;;;23.83;14.27;;;8.10;1.00;;;;;;5077338;28;20206;-74
2022/03/01 00:12:07;;;;;;;18.93;12.23;;;8.00;1.00;;;;;;5079483;28;20670;-74
2022/03/01 00:14:36;;;;;;;21.33;14.07;;;8.00;1.00;;;;;;5077185;28;20209;-74
2022/03/01 00:17:03;;;;;;;16.77;12.17;;;8.00;1.00;;;;;;5078711;28;20209;-74
2022/03/01 00:19:30;;;;;;;17.63;11.40;;;7.90;1.00;;;;;;5075142;28;20251;-75
2022/03/01 00:21:58;;;;;;;15.87;11.00;;;7.90;1.00;;;;;;5074598;28;20260;-75
2022/03/01 00:24:25;;;;;;;18.37;12.47;;;7.90;1.00;;;;;;5072047;28;20198;-75
2022/03/01 00:26:52;;;;;;;14.67;11.10;;;7.90;1.00;;;;;;5072376;28;20288;-75
2022/03/01 00:29:19;;;;;;;15.00;10.07;;;7.90;1.00;;;;;;5073027;28;20689;-74
2022/03/01 00:31:48;;;;;;;12.17;10.00;;;7.90;1.00;;;;;;5081016;28;20206;-76
2022/03/01 00:34:15;;;;;;;13.47;10.07;;;7.80;1.00;;;;;;5084279;28;20827;-74
2022/03/01 00:36:42;;;;;;;15.17;11.37;;;7.90;1.00;;;;;;5071407;28;20210;-73
2022/03/01 00:39:09;;;;;;;15.57;10.63;;;7.90;1.00;;;;;;5078127;28;20198;-74
2022/03/01 00:41:36;;;;;;;17.87;9.53;;;7.90;1.00;;;;;;5076759;28;20205;-75
2022/03/01 00:44:04;;;;;;;14.50;10.17;;;8.00;1.00;;;;;;5073466;28;20256;-74
2022/03/01 00:46:31;;;;;;;12.13;9.70;;;8.00;1.00;;;;;;5070388;28;20278;-74
2022/03/01 00:49:00;;;;;;;14.67;9.80;;;7.90;1.00;;;;;;5074186;28;20307;-74
2022/03/01 00:51:28;;;;;;;13.60;9.20;;;7.80;1.00;;;;;;5071072;28;20201;-74
2022/03/01 00:53:56;;;;;;;11.77;8.87;;;7.80;1.00;;;;;;5074944;28;20350;-74
2022/03/01 00:56:23;;;;;;;13.13;9.50;;;7.80;1.00;;;;;;5075283;28;20201;-75
2022/03/01 00:58:50;;;;;;;10.70;8.10;;;7.80;1.00;;;;;;5079487;28;20256;-74
2022/03/01 01:01:17;;;;;;;14.50;8.90;;;7.80;1.00;;;;;;5074910;28;20690;-73
2022/03/01 01:03:44;;;;;;;13.13;7.50;;;7.80;1.00;;;;;;5074907;28;20259;-73
2022/03/01 01:06:13;;;;;;;10.83;8.07;;;7.80;1.00;;;;;;5074062;28;22211;-72
2022/03/01 01:08:40;;;;;;;13.70;8.97;;;7.80;1.00;;;;;;5075878;28;20198;-76
2022/03/01 01:11:07;;;;;;;9.87;8.20;;;7.80;1.00;;;;;;5077927;28;20685;-74
2022/03/01 01:13:34;;;;;;;10.33;7.57;;;7.70;1.00;;;;;;5072587;28;20635;-75
2022/03/01 01:16:01;;;;;;;9.30;7.30;;;7.70;1.00;;;;;;5072403;28;20202;-72
2022/03/01 01:18:29;;;;;;;15.23;8.27;;;7.80;1.00;;;;;;5073007;28;20272;-70
2022/03/01 01:20:56;;;;;;;18.67;9.73;;;7.60;1.00;;;;;;5076954;28;20738;-71
2022/03/01 01:23:24;;;;;;;12.60;8.43;;;7.50;1.00;;;;;;5073134;28;20286;-73
2022/03/01 01:25:51;;;;;;;9.60;7.67;;;7.40;1.00;;;;;;5073166;28;22131;-72
2022/03/01 01:28:18;;;;;;;13.47;8.50;;;7.40;1.00;;;;;;5073642;28;20689;-72
2022/03/01 01:30:45;;;;;;;10.77;9.47;;;7.30;1.00;;;;;;5072187;28;20222;-72
2022/03/01 01:33:12;;;;;;;9.17;8.07;;;7.30;1.00;;;;;;5076596;28;20214;-71
2022/03/01 01:35:39;;;;;;;9.73;7.47;;;7.40;1.00;;;;;;5071257;28;20202;-72
2022/03/01 01:38:06;;;;;;;15.50;8.43;;;7.50;1.00;;;;;;5076230;28;20251;-71
2022/03/01 01:40:35;;;;;;;9.33;8.37;;;7.40;1.00;;;;;;5071922;28;20243;-72
2022/03/01 01:43:04;;;;;;;10.40;7.53;;;7.40;1.00;;;;;;5074755;28;20202;-73
2022/03/01 01:45:32;;;;;;;15.27;8.20;;;7.30;1.00;;;;;;5072508;28;20255;-72
2022/03/01 01:48:00;;;;;;;11.77;8.27;;;7.30;1.00;;;;;;5074050;28;20300;-70
2022/03/01 01:50:29;;;;;;;9.90;7.37;;;7.30;1.00;;;;;;5071650;28;20205;-71
2022/03/01 01:52:56;;;;;;;10.27;7.07;;;7.20;1.00;;;;;;5072240;28;20214;-72
2022/03/01 01:55:25;;;;;;;11.23;7.67;;;7.20;1.00;;;;;;5075005;28;20206;-71
2022/03/01 01:57:55;;;;;;;13.50;7.13;;;7.20;1.00;;;;;;5072674;28;20677;-75
2022/03/01 02:00:23;;;;;;;9.37;7.20;;;7.20;1.00;;;;;;5076072;28;20260;-75
2022/03/01 02:02:51;;;;;;;12.23;7.83;;;7.10;1.00;;;;;;5073287;28;20186;-75
2022/03/01 02:05:18;;;;;;;10.33;7.17;;;7.20;1.00;;;;;;5075143;28;20200;-75
2022/03/01 02:07:47;;;;;;;13.63;7.87;;;7.20;1.00;;;;;;5071641;28;20275;-76
2022/03/01 02:10:15;;;;;;;11.50;7.93;;;7.30;1.00;;;;;;5077666;28;20206;-76
2022/03/01 02:12:42;;;;;;;10.40;7.53;;;7.20;1.00;;;;;;5073767;28;20286;-76
2022/03/01 02:15:11;;;;;;;14.57;8.03;;;7.30;1.00;;;;;;5074162;28;20251;-75
2022/03/01 02:17:40;;;;;;;9.80;7.37;;;7.10;1.00;;;;;;5078027;28;20303;-75
2022/03/01 02:20:11;;;;;;;17.13;7.83;;;7.10;1.00;;;;;;5071103;28;20202;-75
2022/03/01 02:22:38;;;;;;;11.57;7.37;;;7.10;1.00;;;;;;5073373;28;20198;-75
2022/03/01 02:25:07;;;;;;;10.20;7.53;;;7.00;1.00;;;;;;5077037;28;20202;-75
2022/03/01 02:27:34;;;;;;;9.30;7.47;;;7.10;1.00;;;;;;5075595;28;20245;-76
2022/03/01 02:30:01;;;;;;;10.53;6.63;;;7.10;1.00;;;;;;5069701;28;20681;-76
2022/03/01 02:32:28;;;;;;;10.50;6.90;;;7.00;1.00;;;;;;5077063;28;20259;-76
2022/03/01 02:34:55;;;;;;;9.43;6.80;;;7.00;1.00;;;;;;5069651;28;20259;-77
2022/03/01 02:37:23;;;;;;;10.70;7.70;;;6.80;1.00;;;;;;5070818;28;20642;-77
2022/03/01 02:39:53;;;;;;;12.37;7.63;;;6.90;1.00;;;;;;5070985;28;20553;-76
2022/03/01 02:42:20;;;;;;;11.03;8.53;;;7.00;1.00;;;;;;5071040;28;20202;-77
2022/03/01 02:44:48;;;;;;;8.27;7.10;;;7.00;1.00;;;;;;5070537;28;20292;-76
2022/03/01 02:47:15;;;;;;;13.73;7.10;;;6.90;1.00;;;;;;5070185;28;20782;-78
2022/03/01 02:49:42;;;;;;;16.27;9.83;;;6.90;1.00;;;;;;5070597;28;20608;-76
2022/03/01 02:52:11;;;;;;;11.43;8.00;;;6.70;1.00;;;;;;5070313;28;20255;-76
2022/03/01 02:54:39;;;;;;;13.47;8.30;;;6.80;1.00;;;;;;5070771;28;20206;-77
2022/03/01 02:57:07;;;;;;;15.43;8.57;;;6.80;1.00;;;;;;5070186;28;20259;-75
2022/03/01 02:59:34;;;;;;;14.80;9.47;;;6.70;1.00;;;;;;5070178;28;20210;-76
2022/03/01 03:02:01;;;;;;;12.60;8.17;;;6.70;1.00;;;;;;5069892;28;20673;-78
2022/03/01 03:04:28;;;;;;;10.93;7.80;;;6.80;1.00;;;;;;5070478;28;20614;-87
2022/03/01 03:06:55;;;;;;;11.60;7.70;;;6.80;1.00;;;;;;5070289;28;20230;-73
2022/03/01 03:09:23;;;;;;;11.13;8.17;;;6.80;1.00;;;;;;5072657;28;20263;-78
2022/03/01 03:11:52;;;;;;;9.30;6.33;;;6.80;1.00;;;;;;5074651;28;20202;-76
2022/03/01 03:14:19;;;;;;;12.93;7.30;;;6.70;1.00;;;;;;5074279;28;20202;-76
2022/03/01 03:16:46;;;;;;;11.20;7.57;;;6.80;1.00;;;;;;5074417;28;20264;-79
2022/03/01 03:19:15;;;;;;;11.07;8.03;;;6.70;1.00;;;;;;5073966;28;20275;-76
2022/03/01 03:21:43;;;;;;;15.43;8.23;;;6.60;1.00;;;;;;5073887;28;20566;-76
2022/03/01 03:24:10;;;;;;;11.90;7.40;;;6.60;1.00;;;;;;5075315;28;20261;-76
2022/03/01 03:26:37;;;;;;;11.57;7.50;;;6.60;1.00;;;;;;5075413;28;20217;-76
2022/03/01 03:29:08;;;;;;;10.00;7.77;;;6.70;1.00;;;;;;5091017;28;20213;-77
2022/03/01 03:31:36;;;;;;;10.97;6.50;;;6.60;1.00;;;;;;5093748;28;20209;-77
2022/03/01 03:34:03;;;;;;;12.90;7.57;;;6.60;1.00;;;;;;5093651;28;20209;-76
2022/03/01 03:36:31;;;;;;;9.80;7.00;;;6.60;1.00;;;;;;5093849;28;20209;-79
2022/03/01 03:38:58;;;;;;;12.10;6.77;;;6.50;1.00;;;;;;5093192;28;20201;-77
2022/03/01 03:41:25;;;;;;;11.33;6.43;;;6.50;1.00;;;;;;5080684;28;20916;-75
2022/03/01 03:43:52;;;;;;;9.40;7.10;;;6.50;1.00;;;;;;5066173;28;20279;-76
2022/03/01 03:46:21;;;;;;;8.73;6.63;;;6.60;1.00;;;;;;5093183;28;20225;-76
2022/03/01 03:48:49;;;;;;;11.40;6.70;;;6.50;1.00;;;;;;5093481;28;20669;-75
2022/03/01 03:51:16;;;;;;;9.90;6.30;;;6.50;1.00;;;;;;5091947;28;20213;-73
2022/03/01 03:53:43;;;;;;;9.80;6.53;;;6.50;1.00;;;;;;5093108;28;20266;-76
2022/03/01 03:56:10;;;;;;;9.63;8.07;;;6.40;1.00;;;;;;5086679;28;20739;-73
2022/03/01 03:58:37;;;;;;;10.90;8.20;;;6.40;1.00;;;;;;5079337;28;20205;-74
2022/03/01 04:01:05;;;;;;;9.60;6.77;;;6.40;1.00;;;;;;5092928;28;20217;-72
2022/03/01 04:03:33;;;;;;;9.23;7.30;;;6.30;1.00;;;;;;5093232;28;20213;-73
2022/03/01 04:06:00;;;;;;;10.70;7.70;;;6.10;1.00;;;;;;5092699;28;20669;-72
2022/03/01 04:08:28;;;;;;;10.43;6.77;;;6.20;1.00;;;;;;5093071;28;20242;-74
2022/03/01 04:10:56;;;;;;;12.07;7.47;;;6.10;1.00;;;;;;5092574;28;20216;-72
2022/03/01 04:13:24;;;;;;;11.50;7.10;;;6.10;1.00;;;;;;5088191;28;20207;-72
2022/03/01 04:15:51;;;;;;;11.73;7.33;;;6.20;1.00;;;;;;5083513;28;20235;-73
2022/03/01 04:18:18;;;;;;;11.93;8.10;;;6.20;1.00;;;;;;5080500;28;20217;-74
2022/03/01 04:20:46;;;;;;;11.37;7.17;;;6.30;1.00;;;;;;5090667;28;20251;-73
2022/03/01 04:23:14;;;;;;;11.73;7.73;;;6.30;1.00;;;;;;5092416;28;20209;-73
2022/03/01 04:25:42;;;;;;;6.77;6.07;;;6.20;1.00;;;;;;5092669;28;20800;-74
2022/03/01 04:28:09;;;;;;;11.23;6.60;;;6.20;1.00;;;;;;5092514;28;20233;-74
2022/03/01 04:30:36;;;;;;;8.93;6.43;;;6.10;1.00;;;;;;5091583;28;20216;-74
2022/03/01 04:33:04;;;;;;;10.40;7.67;;;6.00;1.00;;;;;;5089490;28;20205;-73
2022/03/01 04:35:31;;;;;;;7.30;5.93;;;6.10;1.00;;;;;;5065342;28;20762;-72
2022/03/01 04:37:59;;;;;;;10.27;7.20;;;6.10;1.00;;;;;;5087444;28;20262;-72
2022/03/01 04:40:26;;;;;;;18.83;8.73;;;6.00;1.00;;;;;;5086388;28;20267;-72
2022/03/01 04:42:53;;;;;;;11.07;6.43;;;5.90;1.00;;;;;;5091897;28;20243;-73
2022/03/01 04:45:20;;;;;;;13.30;8.07;;;6.10;1.00;;;;;;5092682;28;20721;-72
2022/03/01 04:47:47;;;;;;;10.30;6.47;;;6.00;1.00;;;;;;5092475;28;20700;-74
2022/03/01 04:50:14;;;;;;;9.67;6.67;;;6.00;1.00;;;;;;5091520;28;20556;-73
2022/03/01 04:52:42;;;;;;;7.77;6.37;;;6.10;1.00;;;;;;5090536;28;20212;-73
2022/03/01 04:55:11;;;;;;;9.43;6.53;;;6.00;1.00;;;;;;5091574;28;20232;-73
2022/03/01 04:57:38;;;;;;;7.77;6.07;;;6.10;1.00;;;;;;5092233;28;20212;-73
2022/03/01 05:00:10;;;;;;;10.63;7.43;;;6.10;1.00;;;;;;5091446;28;20657;-73
2022/03/01 05:02:39;;;;;;;9.50;5.83;;;6.00;1.00;;;;;;5091762;28;20639;-74
2022/03/01 05:05:10;;;;;;;13.13;5.57;;;6.00;1.00;;;;;;5091235;28;20267;-76
2022/03/01 05:07:41;;;;;;;8.83;6.80;;;6.10;1.00;;;;;;5090832;28;20761;-74
2022/03/01 05:10:11;;;;;;;9.43;6.73;;;6.00;1.00;;;;;;5090294;28;20669;-74
2022/03/01 05:12:42;;;;;;;10.37;6.73;;;5.90;1.00;;;;;;5090971;28;20209;-72
2022/03/01 05:15:10;;;;;;;6.93;4.97;;;5.90;1.00;;;;;;5091183;28;20267;-73
2022/03/01 05:17:37;;;;;;;8.07;6.13;;;6.00;1.00;;;;;;5091906;28;20270;-73
2022/03/01 05:20:04;;;;;;;9.57;6.33;;;5.90;1.00;;;;;;5091164;28;20205;-73
2022/03/01 05:22:32;;;;;;;10.80;6.53;;;5.90;1.00;;;;;;5091796;28;20669;-72
2022/03/01 05:24:59;;;;;;;12.17;7.43;;;5.90;1.00;;;;;;5088122;28;20266;-73
2022/03/01 05:27:27;;;;;;;8.97;6.63;;;5.90;1.00;;;;;;5080694;28;20237;-73
2022/03/01 05:29:54;;;;;;;13.37;7.47;;;5.90;1.00;;;;;;5087237;28;20209;-73
2022/03/01 05:32:21;;;;;;;10.33;6.00;;;5.80;1.00;;;;;;5091691;28;20197;-73
2022/03/01 05:34:48;;;;;;;10.70;7.07;;;5.80;1.00;;;;;;5089678;28;20284;-72
2022/03/01 05:37:15;;;;;;;10.27;6.27;;;5.70;1.00;;;;;;5090067;28;20207;-73
2022/03/01 05:39:42;;;;;;;9.33;6.17;;;5.70;1.00;;;;;;5090281;28;20210;-72
2022/03/01 05:42:09;;;;;;;11.23;5.53;;;5.70;1.00;;;;;;5090134;28;20722;-73
2022/03/01 05:44:38;;;;;;;8.73;6.60;;;5.70;1.00;;;;;;5091183;28;20209;-73
2022/03/01 05:47:06;;;;;;;9.27;6.10;;;5.60;1.00;;;;;;5063194;28;20294;-73
2022/03/01 05:49:34;;;;;;;10.47;6.83;;;5.70;1.00;;;;;;5091072;28;20213;-76
2022/03/01 05:52:02;;;;;;;13.40;7.43;;;5.60;1.00;;;;;;5090623;28;20206;-75
2022/03/01 05:54:29;;;;;;;10.03;7.83;;;5.60;1.00;;;;;;5090447;28;20688;-75
2022/03/01 05:56:56;;;;;;;10.83;7.50;;;5.50;1.00;;;;;;5090663;28;20201;-74
2022/03/01 05:59:23;;;;;;;9.10;6.77;;;5.50;1.00;;;;;;5091122;28;20266;-74
2022/03/01 06:01:51;;;;;;;10.37;6.27;;;5.60;1.00;;;;;;5080144;28;20207;-72
2022/03/01 06:04:19;;;;;;;7.60;6.13;;;5.60;1.00;;;;;;5065254;28;20202;-73
2022/03/01 06:06:45;;;;;;;9.77;7.07;;;5.60;1.00;;;;;;5088282;28;20982;-72
2022/03/01 06:09:12;;;;;;;9.87;6.60;;;5.50;1.00;;;;;;5089665;28;20610;-72
2022/03/01 06:11:40;;;;;;;12.30;7.40;;;5.50;1.00;;;;;;5090305;28;20349;-73
2022/03/01 06:14:07;;;;;;;7.17;5.73;;;5.50;1.00;;;;;;5090635;28;20684;-73
2022/03/01 06:16:34;;;;;;;16.20;7.00;;;5.50;1.00;;;;;;5090562;28;20582;-73
2022/03/01 06:19:02;;;;;;;19.10;8.40;;;5.50;1.00;;;;;;5090415;28;20213;-73
2022/03/01 06:21:31;;;;;;;9.63;6.70;;;5.50;1.00;;;;;;5089049;28;20205;-75
2022/03/01 06:24:00;;;;;;;8.73;6.63;;;5.50;1.00;;;;;;5090591;28;20206;-73
2022/03/01 06:26:27;;;;;;;11.40;7.07;;;5.40;1.00;;;;;;5090673;28;20239;-74
2022/03/01 06:28:54;;;;;;;10.17;5.97;;;5.40;1.00;;;;;;5090206;28;20720;-73
2022/03/01 06:31:21;;;;;;;8.73;6.33;;;5.50;1.00;;;;;;5090775;28;20647;-71
2022/03/01 06:33:48;;;;;;;9.17;6.30;;;5.50;1.00;;;;;;5090924;28;20205;-76
2022/03/01 06:36:16;;;;;;;11.37;6.27;;;5.50;1.00;;;;;;5076304;28;20206;-75
2022/03/01 06:38:43;;;;;;;9.43;7.33;;;5.50;1.00;;;;;;5068915;28;20688;-75
2022/03/01 06:41:10;;;;;;;9.90;6.03;;;5.50;1.00;;;;;;5069613;28;20210;-74
2022/03/01 06:43:37;;;;;;;9.23;6.57;;;5.50;1.00;;;;;;5072821;28;20206;-79
2022/03/01 06:46:04;;;;;;;10.97;6.63;;;5.50;1.00;;;;;;5074350;28;20259;-77
2022/03/01 06:48:31;;;;;;;9.50;6.57;;;5.50;1.00;;;;;;5073698;28;20656;-81
2022/03/01 06:50:58;;;;;;;18.20;7.30;;;5.50;1.00;;;;;;5073658;28;20206;-87
2022/03/01 06:53:27;;;;;;;13.40;6.60;;;5.50;1.00;;;;;;5074231;28;20669;-76
2022/03/01 06:55:54;;;;;;;9.13;6.53;;;5.60;1.00;;;;;;5072228;28;20988;-75
2022/03/01 06:58:21;;;;;;;10.37;7.13;;;5.60;1.00;;;;;;5074713;28;20248;-76
2022/03/01 07:00:48;;;;;;;14.40;6.47;;;5.60;1.00;;;;;;5073806;28;20214;-78
2022/03/01 07:03:15;;;;;;;15.02;8.15;;;5.60;1.00;;;;;;5073338;28;20438;-77
2022/03/01 07:05:42;;;;;;;11.30;7.27;;;5.60;1.00;;;;;;5073935;28;20794;-76
2022/03/01 07:08:09;;;;;;;13.90;6.57;;;5.70;1.00;;;;;;5073871;28;20238;-77
2022/03/01 07:10:38;;;;;;;9.50;6.40;;;5.80;1.00;;;;;;5074290;28;20210;-77
2022/03/01 07:13:05;;;;;;;10.10;5.87;;;5.90;1.00;;;;;;5073223;28;20682;-73
2022/03/01 07:15:33;;;;;;;8.17;6.13;;;6.00;1.00;;;;;;5074156;28;20621;-76
2022/03/01 07:18:01;;;;;;;7.53;6.30;;;6.10;1.00;;;;;;5073994;28;20206;-75
2022/03/01 07:20:28;;;;;;;8.37;6.27;;;6.20;1.00;;;;;;5073523;28;20248;-80
2022/03/01 07:22:55;;;;;;;14.73;7.70;;;6.30;1.00;;;;;;5079614;28;20673;-80
2022/03/01 07:25:22;;;;;;;11.43;7.37;;;;;;;;;;5080611;28;20658;-75
2022/03/01 07:27:54;;;;;;;17.57;7.33;;;6.30;1.00;;;;;;5079628;28;20280;-77
2022/03/01 07:30:24;;;;;;;9.93;6.67;;;6.50;1.00;;;;;;5081499;28;20247;-78
2022/03/01 07:32:52;;;;;;;8.67;6.93;;;6.60;1.00;;;;;;5072640;28;20224;-77
2022/03/01 07:35:19;;;;;;;16.67;7.03;;;6.70;1.00;;;;;;5077866;28;20579;-75
2022/03/01 07:37:47;;;;;;;19.30;8.13;;;6.80;1.00;;;;;;5076964;28;20267;-74
2022/03/01 07:40:15;;;;;;;9.60;6.40;;;6.90;1.00;;;;;;5077912;28;20692;-77
2022/03/01 07:42:43;;;;;;;11.70;6.00;;;7.00;1.00;;;;;;5076831;28;20605;-78
2022/03/01 07:45:13;;;;;;;8.83;5.93;;;7.30;1.00;;;;;;5092739;28;20205;-76
2022/03/01 07:47:40;;;;;;;8.20;6.47;;;7.50;1.00;;;;;;5079650;28;20222;-78
2022/03/01 07:50:09;;;;;;;8.37;5.50;;;7.70;1.00;;;;;;5087959;28;20221;-79
2022/03/01 07:52:36;;;;;;;14.87;6.67;;;7.80;1.00;;;;;;5083938;28;20270;-73
2022/03/01 07:55:03;;;;;;;8.37;5.73;;;8.20;1.00;;;;;;5091229;28;20681;-75
2022/03/01 07:57:30;;;;;;;7.30;5.50;;;8.20;1.00;;;;;;5093377;28;20275;-76
2022/03/01 07:59:57;;;;;;;16.27;6.50;;;8.50;1.00;;;;;;5077616;28;20194;-75
2022/03/01 08:02:26;;;;;;;13.77;7.13;;;9.10;1.00;;;;;;5091543;28;20342;-73
2022/03/01 08:04:53;;;;;;;15.87;6.10;;;10.40;1.00;;;;;;5066755;28;20205;-76
2022/03/01 08:07:20;;;;;;;16.07;6.67;;;9.60;1.00;;;;;;5092467;28;20210;-74
2022/03/01 08:09:48;;;;;;;12.07;5.83;;;9.70;1.00;;;;;;5085459;28;20209;-74
2022/03/01 08:12:15;;;;;;;10.70;6.57;;;9.80;1.00;;;;;;5084703;28;20290;-76
2022/03/01 08:14:42;;;;;;;8.87;6.67;;;9.90;1.00;;;;;;5088286;28;20799;-74
2022/03/01 08:17:08;;;;;;;10.60;5.67;;;9.70;1.00;;;;;;5081786;28;20205;-74
2022/03/01 08:19:37;;;;;;;7.83;4.57;;;9.40;1.00;;;;;;5089550;28;20255;-74
2022/03/01 08:22:04;;;;;;;8.80;4.23;;;9.20;1.00;;;;;;5080258;28;20750;-74
2022/03/01 08:24:31;;;;;;;10.27;5.00;;;9.30;1.00;;;;;;5092657;28;20607;-74
2022/03/01 08:26:59;;;;;;;9.67;5.53;;;10.70;1.00;;;;;;5092263;28;20262;-76
2022/03/01 08:29:28;;;;;;;11.27;5.07;;;10.40;1.00;;;;;;5093054;28;20268;-76
2022/03/01 08:31:55;;;;;;;7.17;4.60;;;11.00;1.00;;;;;;5092556;28;20237;-76
2022/03/01 08:34:22;;;;;;;12.37;5.40;;;10.80;1.00;;;;;;5082761;28;20198;-75
2022/03/01 08:36:51;;;;;;;6.63;4.43;;;10.40;1.00;;;;;;5072260;28;20666;-76
2022/03/01 08:39:17;;;;;;;11.27;5.53;;;10.40;1.00;;;;;;5072701;28;20207;-75
2022/03/01 08:41:45;;;;;;;15.17;6.20;;;10.20;1.00;;;;;;5072896;28;20259;-76
2022/03/01 08:44:12;;;;;;;10.57;5.37;;;10.50;1.00;;;;;;5072211;28;21128;-78
2022/03/01 08:46:39;;;;;;;8.57;6.00;;;11.10;1.00;;;;;;5072568;28;20202;-76
2022/03/01 08:49:07;;;;;;;12.60;6.43;;;11.40;1.00;;;;;;5077936;28;20274;-74
2022/03/01 08:51:35;;;;;;;19.60;7.77;;;11.30;1.00;;;;;;5068251;28;20210;-78
2022/03/01 08:54:03;;;;;;;12.97;5.93;;;11.00;1.00;;;;;;5079696;28;20569;-78
2022/03/01 08:56:31;;;;;;;19.30;5.83;;;12.30;1.00;;;;;;5083448;28;20202;-79
2022/03/01 08:59:00;;;;;;;11.47;5.30;;;12.00;1.00;;;;;;5071449;28;20646;-77
2022/03/01 09:01:27;;;;;;;8.57;5.23;;;11.70;1.00;;;;;;5072180;28;20214;-75
2022/03/01 09:03:54;;;;;;;10.33;5.07;;;11.60;1.00;;;;;;5075602;28;20198;-73
2022/03/01 09:06:21;;;;;;;9.90;5.80;;;11.10;1.00;;;;;;5079993;28;20198;-74
2022/03/01 09:08:48;;;;;;;18.90;5.77;;;10.90;1.00;;;;;;5072466;28;20269;-74
2022/03/01 09:11:17;;;;;;;10.43;5.33;;;11.90;1.00;;;;;;5071807;28;20198;-74
2022/03/01 09:13:43;;;;;;;7.43;5.50;;;11.40;1.00;;;;;;5072780;28;20206;-73
2022/03/01 09:16:11;;;;;;;13.87;10.03;;;11.30;1.00;;;;;;5061921;28;20202;-74
2022/03/01 09:18:38;;;;;;;16.23;9.80;;;11.10;1.00;;;;;;5089071;28;20260;-74
2022/03/01 09:21:06;;;;;;;14.90;9.70;;;11.20;1.00;;;;;;5087026;28;20658;-73
2022/03/01 09:23:33;;;;;;;10.57;7.60;;;11.10;1.00;;;;;;5084623;28;20214;-78
2022/03/01 09:26:00;;;;;;;8.93;7.27;;;11.10;1.00;;;;;;5082048;28;20206;-76
2022/03/01 09:28:29;;;;;;;10.43;7.40;;;11.30;1.00;;;;;;5076286;28;20291;-78
2022/03/01 09:30:56;;;;;;;28.20;8.10;;;11.30;1.00;;;;;;5087199;28;20282;-78
2022/03/01 09:33:23;;;;;;;13.83;6.77;;;11.70;1.00;;;;;;5077424;28;20259;-78
2022/03/01 09:35:50;;;;;;;10.07;6.77;;;11.60;1.00;;;;;;5082923;28;20202;-75
2022/03/01 09:38:17;;;;;;;13.00;9.07;;;11.80;1.00;;;;;;5082936;28;20279;-76
2022/03/01 09:40:47;;;;;;;10.13;6.43;;;11.90;1.00;;;;;;5079475;28;20202;-77
2022/03/01 09:43:14;;;;;;;11.60;7.00;;;11.80;1.00;;;;;;5075795;28;20205;-78
2022/03/01 09:45:43;;;;;;;9.80;6.73;;;12.30;1.00;;;;;;5080333;28;20764;-81
2022/03/01 09:48:10;;;;;;;18.33;8.03;;;12.50;1.00;;;;;;5081078;28;20287;-79
2022/03/01 09:50:37;;;;;;;11.37;6.93;;;12.60;1.00;;;;;;5079442;28;20209;-80
2022/03/01 09:53:05;;;;;;;7.63;6.47;;;12.70;1.00;;;;;;5076027;28;20202;-79
2022/03/01 09:55:32;;;;;;;13.10;7.10;;;13.30;1.00;;;;;;5070912;28;20210;-76
2022/03/01 09:57:59;;;;;;;16.27;7.07;;;13.50;1.00;;;;;;5081724;28;20202;-78
2022/03/01 10:00:26;;;;;;;9.18;6.63;;;13.40;1.00;;;;;;5071076;28;20202;-80
2022/03/01 10:02:57;;;;;;;10.48;6.80;;;13.70;1.00;;;;;;5070458;28;20260;-78
2022/03/01 10:05:34;;;;;;;12.13;6.45;;;14.60;1.00;;;;;;5082146;28;20198;-76
2022/03/01 10:08:09;;;;;;;11.13;5.85;;;16.10;1.00;;;;;;5061570;28;20285;-77
2022/03/01 10:10:41;;;;;;;10.63;6.38;;;16.60;1.00;;;;;;5078114;28;20201;-79
2022/03/01 10:13:08;;;;;;;7.43;6.03;;;18.80;1.00;;;;;;5072031;28;20203;-78
2022/03/01 10:15:36;;;;;;;6.93;5.47;;;16.50;1.00;;;;;;5073335;28;20202;-81
2022/03/01 10:18:22;;;;;;;9.15;5.85;;;16.30;1.00;;;;;;5072918;28;20207;-82
2022/03/01 10:21:02;;;;;;;7.40;5.30;;;18.40;1.00;;;;;;5079865;28;20210;-83
2022/03/01 10:23:30;;;;;;;24.98;5.30;;;19.80;1.00;;;;;;5076231;28;20260;-78
2022/03/01 10:25:57;;;;;;;7.47;4.45;;;21.90;1.00;;;;;;5073851;28;20284;-79
2022/03/01 10:28:33;;;;;;;7.38;4.18;;;21.30;1.00;;;;;;5077320;28;20225;-78
2022/03/01 10:31:10;;;;;;;7.00;3.90;;;20.40;1.00;;;;;;5078034;28;20295;-77
2022/03/01 10:33:40;;;;;;;6.57;4.50;;;20.40;1.00;;;;;;5070394;28;20285;-77
2022/03/01 10:36:07;;;;;;;9.43;4.40;;;21.00;1.00;;;;;;5087001;28;20288;-76
2022/03/01 10:38:38;;;;;;;8.15;3.95;;;20.20;1.00;;;;;;5074118;28;20202;-78
2022/03/01 10:41:06;;;;;;;7.75;4.03;;;18.30;1.00;;;;;;5076504;28;20774;-78
2022/03/01 10:43:33;;;;;;;6.80;4.60;;;16.20;1.00;;;;;;5084609;28;20207;-77
2022/03/01 10:46:07;;;;;;;5.93;3.90;;;15.00;1.00;;;;;;5077391;28;20206;-77
2022/03/01 10:48:35;;;;;;;4.13;3.20;;;15.00;1.00;;;;;;5084869;28;20225;-76
2022/03/01 10:51:05;;;;;;;5.80;4.15;;;14.90;1.00;;;;;;5078526;28;20206;-77
2022/03/01 10:53:34;;;;;;;8.13;3.70;;;14.60;1.00;;;;;;5070778;28;20206;-78
2022/03/01 10:56:02;;;;;;;6.68;4.53;;;14.60;1.00;;;;;;5071974;28;20614;-81
2022/03/01 10:58:29;;;;;;;5.68;4.05;;;14.60;1.00;;;;;;5082045;28;20248;-91
2022/03/01 11:00:56;;;;;;;5.50;3.78;;;15.10;1.00;;;;;;5069400;28;20214;-80
2022/03/01 11:03:23;;;;;;;6.82;3.42;;;15.00;1.00;;;;;;5073396;28;20206;-86
2022/03/01 11:05:54;;;;;;;5.75;3.03;;;15.00;1.00;;;;;;5069427;28;20206;-81
2022/03/01 11:08:24;;;;;;;4.90;2.85;;;15.10;1.00;;;;;;5077286;28;20555;-86
2022/03/01 11:10:53;;;;;;;4.35;3.10;;;15.10;1.00;;;;;;5055372;28;20699;-85
2022/03/01 11:13:21;;;;;;;5.65;2.78;;;14.90;1.00;;;;;;5080133;28;20601;-82
2022/03/01 11:16:18;;;;;;;2.88;2.58;;;15.30;1.00;;;;;;5083557;28;20210;-86
2022/03/01 11:18:54;;;;;;;6.57;2.90;;;15.50;1.00;;;;;;5088260;28;20627;-80
2022/03/01 11:21:22;;;;;;;6.25;2.40;;;15.70;1.00;;;;;;5075357;28;20198;-77
2022/03/01 11:23:55;;;;;;;3.65;2.20;;;15.60;1.00;;;;;;5069854;28;20214;-77
2022/03/01 11:26:22;;;;;;;4.95;2.80;;;15.40;1.00;;;;;;5070703;28;20700;-82
2022/03/01 11:28:53;;;;;;;4.70;2.47;;;15.80;1.00;;;;;;5070722;28;20778;-79
2022/03/01 11:31:22;;;;;;;4.75;2.40;;;15.70;1.00;;;;;;5074347;28;20293;-76
2022/03/01 11:33:58;;;;;;;3.55;2.25;;;15.60;1.00;;;;;;5074683;28;20205;-75
2022/03/01 11:36:28;;;;;;;2.97;2.63;;;15.30;1.00;;;;;;5074593;28;20206;-76
2022/03/01 11:38:56;;;;;;;5.45;3.40;;;15.60;1.00;;;;;;5072919;28;20214;-74
2022/03/01 11:41:23;;;;;;;3.58;2.05;;;15.30;1.00;;;;;;5073949;28;20203;-77
2022/03/01 11:43:56;;;;;;;3.90;1.80;;;15.40;1.00;;;;;;5082221;28;20644;-81
2022/03/01 11:46:24;;;;;;;6.20;2.60;;;15.50;1.00;;;;;;5091452;28;20201;-73
2022/03/01 11:48:53;;;;;;;7.15;2.45;;;15.50;1.00;;;;;;5087612;28;20226;-74
2022/03/01 11:51:32;;;;;;;4.80;1.85;;;15.90;1.00;;;;;;5077743;28;20263;-74
2022/03/01 11:54:04;;;;;;;4.57;2.08;;;16.00;1.00;;;;;;5078070;28;20194;-80
2022/03/01 11:56:31;;;;;;;5.88;2.50;;;15.90;1.00;;;;;;5089014;28;20206;-81
2022/03/01 11:59:05;;;;;;;4.57;2.05;;;15.90;1.00;;;;;;5086861;28;20685;-78
2022/03/01 12:01:33;;;;;;;5.05;1.73;;;15.80;1.00;;;;;;5084095;28;20216;-84
2022/03/01 12:04:02;;;;;;;3.58;2.53;;;15.70;1.00;;;;;;5084586;28;20202;-78
2022/03/01 12:06:31;;;;;;;4.45;2.50;;;15.70;1.00;;;;;;5078708;28;20210;-77
2022/03/01 12:09:00;;;;;;;4.18;2.08;;;15.70;1.00;;;;;;5070081;28;20234;-78
2022/03/01 12:11:36;;;;;;;4.30;2.00;;;15.70;1.00;;;;;;5082931;28;20210;-78
2022/03/01 12:14:05;;;;;;;3.85;2.10;;;15.70;1.00;;;;;;5078834;28;20753;-75
2022/03/01 12:16:33;;;;;;;5.10;2.58;;;16.00;1.00;;;;;;5092714;28;20205;-76
2022/03/01 12:19:09;;;;;;;4.68;3.13;;;16.20;1.00;;;;;;5082271;28;20205;-77
2022/03/01 12:21:37;;;;;;;7.07;1.52;;;16.10;1.00;;;;;;5088433;28;20672;-76
2022/03/01 12:24:06;;;;;;;5.05;1.58;;;16.00;1.00;;;;;;5080861;28;20213;-75
2022/03/01 12:26:43;;;;;;;2.47;1.73;;;16.00;1.00;;;;;;5088197;28;20210;-72
2022/03/01 12:29:11;;;;;;;5.05;1.48;;;15.90;1.00;;;;;;5070804;28;20267;-75
2022/03/01 12:31:38;;;;;;;2.92;1.63;;;15.80;1.00;;;;;;5075987;28;20292;-76
2022/03/01 12:34:07;;;;;;;2.83;1.80;;;16.10;1.00;;;;;;5071125;28;20259;-74
2022/03/01 12:36:36;;;;;;;3.38;2.58;;;15.90;1.00;;;;;;5073394;28;20275;-77
2022/03/01 12:39:07;;;;;;;2.83;1.85;;;16.10;1.00;;;;;;5069506;28;20670;-79
2022/03/01 12:41:35;;;;;;;3.30;2.03;;;16.10;1.00;;;;;;5067215;28;20624;-79
2022/03/01 12:44:11;;;;;;;3.85;1.83;;;16.20;1.00;;;;;;5079751;28;20206;-75
2022/03/01 12:46:40;;;;;;;6.43;1.75;;;16.30;1.00;;;;;;5078589;28;20669;-77
2022/03/01 12:49:09;;;;;;;5.30;1.70;;;16.30;1.00;;;;;;5077511;28;20210;-78
2022/03/01 12:51:37;;;;;;;2.83;1.45;;;16.10;1.00;;;;;;5082739;28;20580;-79
2022/03/01 12:54:09;;;;;;;3.42;2.08;;;16.00;1.00;;;;;;5075954;28;20240;-82
2022/03/01 12:56:37;;;;;;;9.18;2.60;;;16.20;1.00;;;;;;5075076;28;20204;-80
2022/03/01 12:59:07;;;;;;;2.95;1.50;;;15.90;1.00;;;;;;5071788;28;20206;-79
2022/03/01 13:01:35;;;;;;;5.43;1.48;;;16.00;1.00;;;;;;5079886;28;20674;-78
2022/03/01 13:04:03;;;;;;;3.50;1.80;;;16.10;1.00;;;;;;5085481;28;20210;-79